Time;durP1;ratioP1;P1;durP2;ratioP2;P2;SDS_P1;SDS_P2;PMS_P1;PMS_P2;Temp;Humidity;BMP_temperature;BMP_pressure;BME280_temperature;BME280_humidity;BME280_pressure;Samples;Min_cycle;Max_cycle;Signal;HPM_P1;HPM_P2
2024/03/17 00:02:21;;;;;;;;;;;;;;;0.35;100.00;101926.00;6156453;23;19920;-74
2024/03/17 00:04:47;;;;;;;;;;;;;;;0.31;100.00;101921.84;6160137;23;19915;-74
2024/03/17 00:07:12;;;;;;;;;;;;;;;0.30;100.00;101915.69;6155988;23;19936;-74
2024/03/17 00:09:38;;;;;;;;;;;;;;;0.29;100.00;101921.91;6154710;23;19921;-74
2024/03/17 00:12:03;;;;;;;;;;;;;;;0.27;100.00;101915.03;6153981;23;19923;-74
2024/03/17 00:14:29;;;;;;;;;;;;;;;0.27;100.00;101909.75;6154706;23;20006;-74
2024/03/17 00:16:54;;;;;;;;;;;;;;;0.31;100.00;101905.94;6154002;23;19924;-74
2024/03/17 00:19:22;;;;;;;;;;;;;;;0.32;100.00;101901.47;6154083;23;19917;-74
2024/03/17 00:21:47;;;;;;;;;;;;;;;0.29;100.00;101899.91;6156049;23;20425;-73
2024/03/17 00:24:13;;;;;;;;;;;;;;;0.27;100.00;101899.16;6154278;23;19927;-74
2024/03/17 00:26:47;;;;;;;;;;;;;;;0.30;100.00;101891.00;6153949;23;19919;-74
2024/03/17 00:29:14;;;;;;;;;;;;;;;0.30;100.00;101893.66;6155197;23;19920;-74
2024/03/17 00:31:39;;;;;;;;;;;;;;;0.32;100.00;101891.75;6154060;23;19916;-74
2024/03/17 00:34:04;;;;;;;;;;;;;;;0.30;100.00;101885.72;6154342;23;20317;-74
2024/03/17 00:36:33;;;;;;;;;;;;;;;0.31;100.00;101884.75;6155199;23;20336;-74
2024/03/17 00:38:58;;;;;;;;;;;;;;;0.33;100.00;101885.50;6153934;23;19920;-74
2024/03/17 00:41:23;;;;;;;;;;;;;;;0.32;100.00;101875.00;6154228;23;19916;-74
2024/03/17 00:43:49;;;;;;;;;;;;;;;0.29;100.00;101870.75;6155463;23;19916;-74
2024/03/17 00:46:14;;;;;;;;;;;;;;;0.28;100.00;101877.84;6153542;23;20370;-74
2024/03/17 00:48:39;;;;;;;;;;;;;;;0.29;100.00;101863.66;6154473;23;19916;-74
2024/03/17 00:51:05;;;;;;;;;;;;;;;0.26;100.00;101865.69;6155118;23;19916;-74
2024/03/17 00:53:30;;;;;;;;;;;;;;;0.24;100.00;101856.97;6153533;23;20047;-74
2024/03/17 00:55:58;;;;;;;;;;;;;;;0.20;100.00;101861.66;6154498;23;19913;-74
2024/03/17 00:58:23;;;;;;;;;;;;;;;0.21;100.00;101858.03;6155781;23;20309;-74
2024/03/17 01:00:49;;;;;;;;;;;;;;;0.20;100.00;101856.34;6154739;23;19927;-74
2024/03/17 01:03:14;;;;;;;;;;;;;;;0.19;100.00;101857.31;6156776;23;20020;-74
2024/03/17 01:05:42;;;;;;;;;;;;;;;0.17;100.00;101853.06;6157186;23;20226;-74
2024/03/17 01:08:09;;;;;;;;;;;;;;;0.13;100.00;101860.34;6155356;23;19987;-74
2024/03/17 01:10:37;;;;;;;;;;;;;;;0.11;100.00;101862.25;6156270;23;19912;-74
2024/03/17 01:13:02;;;;;;;;;;;;;;;0.04;100.00;101853.88;6157227;23;19912;-74
2024/03/17 01:15:27;;;;;;;;;;;;;;;0.03;100.00;101851.34;6154674;23;19920;-74
2024/03/17 01:17:53;;;;;;;;;;;;;;;0.00;100.00;101860.34;6156335;23;19920;-74
2024/03/17 01:20:18;;;;;;;;;;;;;;;-0.04;100.00;101864.97;6157845;23;19954;-74
2024/03/17 01:22:44;;;;;;;;;;;;;;;-0.07;100.00;101854.59;6155997;23;19952;-74
2024/03/17 01:25:09;;;;;;;;;;;;;;;-0.10;100.00;101848.66;6130589;23;19959;-74
2024/03/17 01:27:34;;;;;;;;;;;;;;;-0.12;100.00;101863.78;6157433;23;19979;-74
2024/03/17 01:29:59;;;;;;;;;;;;;;;-0.17;100.00;101849.06;6155264;23;19912;-75
2024/03/17 01:32:24;;;;;;;;;;;;;;;-0.19;100.00;101847.47;6155782;23;19912;-74
2024/03/17 01:34:51;;;;;;;;;;;;;;;-0.20;100.00;101845.78;6157505;23;19916;-74
2024/03/17 01:37:16;;;;;;;;;;;;;;;-0.22;100.00;101845.03;6155277;23;19916;-75
2024/03/17 01:39:41;;;;;;;;;;;;;;;-0.23;100.00;101843.34;6156266;23;19908;-75
2024/03/17 01:42:07;;;;;;;;;;;;;;;-0.25;100.00;101843.44;6157859;23;19920;-75
2024/03/17 01:44:32;;;;;;;;;;;;;;;-0.24;100.00;101839.84;6155348;23;20375;-75
2024/03/17 01:46:57;;;;;;;;;;;;;;;-0.21;100.00;101838.78;6156221;23;19980;-74
2024/03/17 01:49:23;;;;;;;;;;;;;;;-0.20;100.00;101838.72;6128549;23;20245;-76
2024/03/17 01:51:48;;;;;;;;;;;;;;;-0.23;100.00;101844.19;6130187;23;20210;-75
2024/03/17 01:54:13;;;;;;;;;;;;;;;-0.22;100.00;101839.75;6155667;23;19916;-74
2024/03/17 01:56:41;;;;;;;;;;;;;;;-0.25;100.00;101837.28;6129561;23;19916;-75
2024/03/17 01:59:07;;;;;;;;;;;;;;;-0.27;100.00;101828.63;6155634;23;19940;-76
2024/03/17 02:01:32;;;;;;;;;;;;;;;-0.30;100.00;101832.31;6129557;23;19920;-75
2024/03/17 02:03:58;;;;;;;;;;;;;;;-0.29;100.00;101831.38;6154841;23;20394;-75
2024/03/17 02:06:24;;;;;;;;;;;;;;;-0.26;100.00;101828.50;6155638;23;20683;-76
2024/03/17 02:08:53;;;;;;;;;;;;;;;-0.24;100.00;101831.91;6130023;23;19913;-75
2024/03/17 02:11:25;;;;;;;;;;;;;;;-0.28;100.00;101825.13;6167490;23;19956;-76
2024/03/17 02:13:50;;;;;;;;;;;;;;;-0.28;100.00;101819.81;6159702;23;19916;-76
2024/03/17 02:16:16;;;;;;;;;;;;;;;-0.27;100.00;101823.34;6157000;23;19991;-75
2024/03/17 02:18:42;;;;;;;;;;;;;;;-0.26;100.00;101825.88;6155903;23;20198;-75
2024/03/17 02:21:09;;;;;;;;;;;;;;;-0.23;100.00;101819.50;6156141;23;20007;-75
2024/03/17 02:23:34;;;;;;;;;;;;;;;-0.25;100.00;101814.34;6155676;23;19924;-75
2024/03/17 02:25:59;;;;;;;;;;;;;;;-0.27;100.00;101816.25;6155105;23;19913;-75
2024/03/17 02:28:24;;;;;;;;;;;;;;;-0.27;100.00;101816.25;6155591;23;19912;-75
2024/03/17 02:30:50;;;;;;;;;;;;;;;-0.28;100.00;101809.25;6155795;23;19912;-75
2024/03/17 02:33:15;;;;;;;;;;;;;;;-0.24;100.00;101812.53;6155135;23;19912;-75
2024/03/17 02:35:40;;;;;;;;;;;;;;;-0.28;100.00;101809.25;6155818;23;19955;-74
2024/03/17 02:38:07;;;;;;;;;;;;;;;-0.26;100.00;101806.47;6155024;23;19909;-74
2024/03/17 02:40:33;;;;;;;;;;;;;;;-0.27;100.00;101804.81;6129184;23;19917;-73
2024/03/17 02:42:58;;;;;;;;;;;;;;;-0.28;100.00;101803.94;6156148;23;19924;-74
2024/03/17 02:45:24;;;;;;;;;;;;;;;-0.27;100.00;101792.41;6155185;23;19999;-73
2024/03/17 02:47:50;;;;;;;;;;;;;;;-0.25;100.00;101795.81;6154380;23;19917;-73
2024/03/17 02:50:15;;;;;;;;;;;;;;;-0.25;100.00;101790.53;6154683;23;19917;-74
2024/03/17 02:52:40;;;;;;;;;;;;;;;-0.23;100.00;101793.91;6154216;23;20229;-75
2024/03/17 02:55:06;;;;;;;;;;;;;;;-0.20;100.00;101785.78;6154338;23;19934;-74
2024/03/17 02:57:32;;;;;;;;;;;;;;;-0.18;100.00;101794.44;6155409;23;19980;-74
2024/03/17 02:59:57;;;;;;;;;;;;;;;-0.14;100.00;101796.88;6154406;23;19991;-74
2024/03/17 03:02:22;;;;;;;;;;;;;;;-0.16;100.00;101792.53;6154877;23;20329;-73
2024/03/17 03:04:47;;;;;;;;;;;;;;;-0.13;100.00;101790.63;6156346;23;20237;-73
2024/03/17 03:07:13;;;;;;;;;;;;;;;-0.12;100.00;101790.56;6154475;23;19923;-73
2024/03/17 03:09:38;;;;;;;;;;;;;;;-0.12;100.00;101798.50;6154763;23;20332;-73
2024/03/17 03:12:04;;;;;;;;;;;;;;;-0.15;100.00;101785.47;6156109;23;19917;-73
2024/03/17 03:14:29;;;;;;;;;;;;;;;-0.14;100.00;101796.88;6153965;23;19916;-73
2024/03/17 03:16:54;;;;;;;;;;;;;;;-0.13;100.00;101801.22;6154727;23;20249;-73
2024/03/17 03:19:19;;;;;;;;;;;;;;;-0.13;100.00;101811.81;6156650;23;19958;-74
2024/03/17 03:21:45;;;;;;;;;;;;;;;-0.16;100.00;101804.94;6153883;23;19991;-74
2024/03/17 03:24:10;;;;;;;;;;;;;;;-0.18;100.00;101794.44;6154920;23;19913;-74
2024/03/17 03:26:35;;;;;;;;;;;;;;;-0.19;100.00;101795.41;6156302;23;20284;-74
2024/03/17 03:29:01;;;;;;;;;;;;;;;-0.18;100.00;101794.44;6153486;23;19912;-74
2024/03/17 03:31:26;;;;;;;;;;;;;;;-0.14;100.00;101799.53;6154699;23;19912;-74
2024/03/17 03:33:51;;;;;;;;;;;;;;;-0.16;100.00;101803.13;6155777;23;19919;-74
2024/03/17 03:36:17;;;;;;;;;;;;;;;-0.15;100.00;101804.00;6153959;23;19912;-74
2024/03/17 03:38:42;;;;;;;;;;;;;;;-0.13;100.00;101801.22;6155099;23;19920;-74
2024/03/17 03:41:12;;;;;;;;;;;;;;;-0.12;100.00;101805.56;6155788;23;19917;-74
2024/03/17 03:43:37;;;;;;;;;;;;;;;-0.09;100.00;101802.72;6153818;23;19948;-74
2024/03/17 03:46:03;;;;;;;;;;;;;;;-0.11;100.00;101804.63;6154865;23;19971;-74
2024/03/17 03:48:28;;;;;;;;;;;;;;;-0.08;100.00;101804.41;6155788;23;19913;-74
2024/03/17 03:50:54;;;;;;;;;;;;;;;-0.08;100.00;101802.59;6153846;23;19921;-74
2024/03/17 03:53:19;;;;;;;;;;;;;;;-0.06;100.00;101800.69;6154742;23;19912;-73
2024/03/17 03:55:44;;;;;;;;;;;;;;;-0.01;100.00;101803.06;6155088;23;19935;-74
2024/03/17 03:58:12;;;;;;;;;;;;;;;-0.02;100.00;101799.56;6151970;23;19912;-74
2024/03/17 04:00:39;;;;;;;;;;;;;;;0.04;100.00;101803.56;6154424;23;19913;-72
2024/03/17 04:03:04;;;;;;;;;;;;;;;0.12;100.00;101801.28;6154620;23;19916;-72
2024/03/17 04:05:29;;;;;;;;;;;;;;;0.21;100.00;101806.88;6155275;23;19916;-73
2024/03/17 04:08:00;;;;;;;;;;;;;;;0.25;100.00;101801.28;6154890;23;19913;-73
2024/03/17 04:10:25;;;;;;;;;;;;;;;0.33;100.00;101797.25;6154189;23;19916;-73
2024/03/17 04:12:51;;;;;;;;;;;;;;;0.40;100.00;101794.06;6155230;23;19917;-73
2024/03/17 04:15:16;;;;;;;;;;;;;;;0.45;100.00;101791.06;6154739;23;20310;-74
2024/03/17 04:17:44;;;;;;;;;;;;;;;0.60;100.00;101795.31;6157005;23;19920;-75
2024/03/17 04:20:13;;;;;;;;;;;;;;;0.75;100.00;101796.03;6159169;23;19920;-73
2024/03/17 04:22:38;;;;;;;;;;;;;;;0.84;100.00;101796.34;6154725;23;20313;-74
2024/03/17 04:25:04;;;;;;;;;;;;;;;0.92;100.00;101787.84;6154839;23;19921;-73
2024/03/17 04:27:29;;;;;;;;;;;;;;;0.99;100.00;101778.47;6155349;23;20397;-73
2024/03/17 04:29:54;;;;;;;;;;;;;;;1.01;100.00;101784.50;6154413;23;20321;-73
2024/03/17 04:32:20;;;;;;;;;;;;;;;1.09;100.00;101778.63;6154332;23;20344;-73
2024/03/17 04:34:45;;;;;;;;;;;;;;;1.13;100.00;101765.06;6157128;23;20347;-73
2024/03/17 04:37:11;;;;;;;;;;;;;;;1.20;100.00;101766.28;6156080;23;19916;-73
2024/03/17 04:39:38;;;;;;;;;;;;;;;1.26;100.00;101769.47;6156264;23;19919;-73
2024/03/17 04:42:04;;;;;;;;;;;;;;;1.35;100.00;101763.47;6156695;23;19967;-74
2024/03/17 04:44:29;;;;;;;;;;;;;;;1.41;100.00;101756.88;6156717;23;19916;-74
2024/03/17 04:46:54;;;;;;;;;;;;;;;1.45;100.00;101759.19;6155723;23;19916;-74
2024/03/17 04:49:22;;;;;;;;;;;;;;;1.55;100.00;101759.34;6157360;23;19971;-74
2024/03/17 04:51:47;;;;;;;;;;;;;;;1.57;100.00;101759.22;6156152;23;19958;-74
2024/03/17 04:54:13;;;;;;;;;;;;;;;1.62;100.00;101757.06;6155822;23;19999;-74
2024/03/17 04:56:38;;;;;;;;;;;;;;;1.59;100.00;101752.81;6157248;23;19975;-74
2024/03/17 04:59:05;;;;;;;;;;;;;;;1.62;100.00;101749.94;6155903;23;19920;-74
2024/03/17 05:01:31;;;;;;;;;;;;;;;1.67;100.00;101746.97;6154115;23;19912;-74
2024/03/17 05:03:56;;;;;;;;;;;;;;;1.69;100.00;101749.47;6156854;23;19913;-73
2024/03/17 05:06:21;;;;;;;;;;;;;;;1.74;100.00;101748.16;6155105;23;20327;-73
2024/03/17 05:08:47;;;;;;;;;;;;;;;1.79;100.00;101750.47;6156113;23;19913;-73
2024/03/17 05:11:14;;;;;;;;;;;;;;;1.85;100.00;101754.47;6158026;23;19919;-73
2024/03/17 05:13:39;;;;;;;;;;;;;;;1.93;100.00;101758.25;6154785;23;20075;-75
2024/03/17 05:16:04;;;;;;;;;;;;;;;1.97;100.00;101751.72;6156248;23;19956;-75
2024/03/17 05:18:32;;;;;;;;;;;;;;;1.96;100.00;101752.66;6157758;23;19960;-74
2024/03/17 05:21:04;;;;;;;;;;;;;;;2.01;100.00;101749.69;6155302;23;19916;-74
2024/03/17 05:23:29;;;;;;;;;;;;;;;2.06;100.00;101741.34;6156438;23;19967;-76
2024/03/17 05:25:55;;;;;;;;;;;;;;;2.02;100.00;101735.44;6157652;23;20285;-75
2024/03/17 05:28:20;;;;;;;;;;;;;;;2.03;100.00;101742.41;6154699;23;19917;-74
2024/03/17 05:30:45;;;;;;;;;;;;;;;2.09;100.00;101735.81;6155468;23;19923;-75
2024/03/17 05:33:11;;;;;;;;;;;;;;;2.16;100.00;101737.00;6156595;23;20377;-74
2024/03/17 05:35:36;;;;;;;;;;;;;;;2.18;100.00;101732.41;6154937;23;19991;-73
2024/03/17 05:38:01;;;;;;;;;;;;;;;2.21;100.00;101736.63;6154501;23;19936;-73
2024/03/17 05:40:30;;;;;;;;;;;;;;;2.25;100.00;101735.44;6155473;23;19996;-72
2024/03/17 05:42:55;;;;;;;;;;;;;;;2.26;100.00;101734.47;6154230;23;19913;-72
2024/03/17 05:45:21;;;;;;;;;;;;;;;2.29;100.00;101738.72;6154303;23;19952;-73
2024/03/17 05:47:46;;;;;;;;;;;;;;;2.29;100.00;101747.53;6155879;23;19927;-73
2024/03/17 05:50:12;;;;;;;;;;;;;;;2.33;100.00;101745.47;6154041;23;19917;-72
2024/03/17 05:52:37;;;;;;;;;;;;;;;2.33;100.00;101748.13;6154865;23;19913;-72
2024/03/17 05:55:03;;;;;;;;;;;;;;;2.34;100.00;101752.47;6155950;23;19993;-72
2024/03/17 05:57:28;;;;;;;;;;;;;;;2.39;100.00;101752.97;6154485;23;20229;-73
2024/03/17 05:59:55;;;;;;;;;;;;;;;2.46;100.00;101754.19;6163526;23;19923;-73
2024/03/17 06:02:20;;;;;;;;;;;;;;;2.50;100.00;101750.28;6178361;23;19919;-72
2024/03/17 06:04:45;;;;;;;;;;;;;;;2.60;100.00;101744.25;6178982;23;19900;-73
2024/03/17 06:07:11;;;;;;;;;;;;;;;2.62;100.00;101737.00;6180237;23;20299;-72
2024/03/17 06:09:36;;;;;;;;;;;;;;;2.72;100.00;101743.25;6179632;23;19928;-72
2024/03/17 06:12:01;;;;;;;;;;;;;;;2.76;100.00;101744.72;6166974;23;19919;-72
2024/03/17 06:14:26;;;;;;;;;;;;;;;2.78;100.00;101741.91;6159163;23;19952;-73
2024/03/17 06:16:52;;;;;;;;;;;;;;;2.83;100.00;101745.06;6158314;23;19920;-73
2024/03/17 06:19:17;;;;;;;;;;;;;;;2.92;100.00;101743.47;6158025;23;19913;-73
2024/03/17 06:21:43;;;;;;;;;;;;;;;2.98;100.00;101735.84;6155735;23;19939;-73
2024/03/17 06:24:08;;;;;;;;;;;;;;;3.03;100.00;101738.09;6156281;23;19912;-73
2024/03/17 06:26:34;;;;;;;;;;;;;;;3.15;100.00;101729.16;6158566;23;19920;-73
2024/03/17 06:29:02;;;;;;;;;;;;;;;3.23;100.00;101738.28;6155118;23;19924;-72
2024/03/17 06:31:27;;;;;;;;;;;;;;;3.31;100.00;101735.84;6155091;23;19917;-73
2024/03/17 06:33:52;;;;;;;;;;;;;;;3.37;100.00;101732.66;6155559;23;19988;-73
2024/03/17 06:36:18;;;;;;;;;;;;;;;3.38;100.00;101729.03;6154897;23;19913;-73
2024/03/17 06:38:43;;;;;;;;;;;;;;;3.48;100.00;101724.66;6153912;23;19963;-73
2024/03/17 06:41:12;;;;;;;;;;;;;;;3.44;100.00;101730.38;6155262;23;19967;-73
2024/03/17 06:43:39;;;;;;;;;;;;;;;3.52;100.00;101732.38;6154932;23;19987;-73
2024/03/17 06:46:04;;;;;;;;;;;;;;;3.54;100.00;101735.72;6153964;23;19927;-73
2024/03/17 06:48:29;;;;;;;;;;;;;;;3.62;100.00;101735.94;6155857;23;19951;-73
2024/03/17 06:50:55;;;;;;;;;;;;;;;3.65;100.00;101727.72;6153788;23;19924;-74
2024/03/17 06:53:23;;;;;;;;;;;;;;;3.80;100.00;101725.53;6152623;23;20390;-74
2024/03/17 06:55:55;;;;;;;;;;;;;;;3.93;100.00;101728.88;6155138;23;19920;-74
2024/03/17 06:58:22;;;;;;;;;;;;;;;4.07;100.00;101734.81;6151669;23;19917;-74
2024/03/17 07:00:54;;;;;;;;;;;;;;;4.25;100.00;101737.69;6149594;23;19920;-74
2024/03/17 07:03:19;;;;;;;;;;;;;;;4.43;100.00;101745.06;6152354;23;19988;-74
2024/03/17 07:05:50;;;;;;;;;;;;;;;4.50;100.00;101748.91;6154638;23;19948;-74
2024/03/17 07:08:15;;;;;;;;;;;;;;;4.49;100.00;101747.22;6154268;23;19912;-74
2024/03/17 07:10:41;;;;;;;;;;;;;;;4.39;100.00;101742.69;6155339;23;19913;-74
2024/03/17 07:13:06;;;;;;;;;;;;;;;4.43;100.00;101745.06;6152180;23;19970;-72
2024/03/17 07:15:31;;;;;;;;;;;;;;;4.56;100.00;101740.38;6153464;23;19945;-73
2024/03/17 07:17:56;;;;;;;;;;;;;;;4.75;100.00;101736.06;6155098;23;19913;-74
2024/03/17 07:20:22;;;;;;;;;;;;;;;4.89;100.00;101738.34;6151040;23;19924;-74
2024/03/17 07:22:48;;;;;;;;;;;;;;;5.25;100.00;101744.00;6150534;23;19912;-75
2024/03/17 07:25:13;;;;;;;;;;;;;;;5.60;100.00;101742.59;6153717;23;19932;-74
2024/03/17 07:27:39;;;;;;;;;;;;;;;5.97;100.00;101750.84;6151637;23;19916;-75
2024/03/17 07:30:04;;;;;;;;;;;;;;;6.80;98.26;101753.63;6152434;23;20289;-74
2024/03/17 07:32:30;;;;;;;;;;;;;;;8.29;91.20;101752.19;6153695;23;20369;-74
2024/03/17 07:34:55;;;;;;;;;;;;;;;9.83;80.70;101769.00;6124775;23;19992;-74
2024/03/17 07:37:20;;;;;;;;;;;;;;;10.41;74.02;101766.22;6151577;23;19951;-73
2024/03/17 07:39:49;;;;;;;;;;;;;;;11.15;71.74;101772.28;6153918;23;19913;-73
2024/03/17 07:42:14;;;;;;;;;;;;;;;11.49;66.46;101763.78;6150290;23;19952;-73
2024/03/17 07:44:40;;;;;;;;;;;;;;;11.91;63.64;101760.75;6151537;23;19913;-74
2024/03/17 07:47:05;;;;;;;;;;;;;;;11.63;65.56;101764.88;6153784;23;19955;-74
2024/03/17 07:49:31;;;;;;;;;;;;;;;11.74;64.07;101766.25;6150890;23;19936;-75
2024/03/17 07:51:57;;;;;;;;;;;;;;;12.24;61.81;101763.13;6151567;23;20207;-76
2024/03/17 07:54:22;;;;;;;;;;;;;;;12.33;61.46;101764.72;6153182;23;19923;-75
2024/03/17 07:56:47;;;;;;;;;;;;;;;11.55;65.00;101772.19;6151496;23;19916;-76
2024/03/17 07:59:16;;;;;;;;;;;;;;;11.82;62.24;101777.00;6151053;23;20003;-76
2024/03/17 08:01:42;;;;;;;;;;;;;;;12.63;59.43;101789.00;6152251;23;19917;-76
2024/03/17 08:04:07;;;;;;;;;;;;;;;13.08;56.49;101793.50;6155349;23;19972;-78
2024/03/17 08:06:32;;;;;;;;;;;;;;;12.99;56.62;101795.47;6152478;23;19943;-74
2024/03/17 08:09:01;;;;;;;;;;;;;;;12.55;57.91;101784.53;6151332;23;19920;-74
2024/03/17 08:11:26;;;;;;;;;;;;;;;13.16;57.41;101786.09;6151868;23;20254;-75
2024/03/17 08:13:52;;;;;;;;;;;;;;;13.68;54.41;101790.59;6152807;23;19923;-74
2024/03/17 08:16:18;;;;;;;;;;;;;;;13.95;53.78;101787.06;6153847;23;19916;-74
2024/03/17 08:18:43;;;;;;;;;;;;;;;14.36;52.03;101788.19;6152849;23;19921;-73
2024/03/17 08:21:11;;;;;;;;;;;;;;;15.12;49.77;101796.47;6151779;23;19913;-74
2024/03/17 08:23:41;;;;;;;;;;;;;;;15.63;47.62;101794.28;6152037;23;19923;-74
2024/03/17 08:26:06;;;;;;;;;;;;;;;15.67;46.71;101795.53;6152784;23;19976;-74
2024/03/17 08:28:31;;;;;;;;;;;;;;;16.30;46.08;101800.53;6153462;23;19912;-74
2024/03/17 08:31:01;;;;;;;;;;;;;;;16.58;44.38;101796.69;6154131;23;19912;-74
2024/03/17 08:33:26;;;;;;;;;;;;;;;16.79;43.87;101806.44;6160522;23;20232;-75
2024/03/17 08:35:52;;;;;;;;;;;;;;;16.24;44.81;101795.13;6157310;23;20329;-74
2024/03/17 08:38:20;;;;;;;;;;;;;;;15.22;47.12;101787.94;6153882;23;19912;-74
2024/03/17 08:40:46;;;;;;;;;;;;;;;16.36;45.13;101790.69;6154351;23;19913;-75
2024/03/17 08:43:12;;;;;;;;;;;;;;;17.43;41.82;101792.97;6153669;23;19912;-74
2024/03/17 08:45:37;;;;;;;;;;;;;;;17.15;42.02;101796.06;6153010;23;20391;-74
2024/03/17 08:48:03;;;;;;;;;;;;;;;16.76;43.67;101793.28;6154985;23;20591;-74
2024/03/17 08:50:28;;;;;;;;;;;;;;;17.29;42.15;101791.38;6149454;23;20088;-75
2024/03/17 08:52:53;;;;;;;;;;;;;;;16.50;42.81;101786.88;6148058;23;19916;-75
2024/03/17 08:55:18;;;;;;;;;;;;;;;16.76;43.44;101790.56;6152471;23;19994;-74
2024/03/17 08:57:44;;;;;;;;;;;;;;;16.94;42.48;101778.97;6150087;23;19916;-74
2024/03/17 09:00:09;;;;;;;;;;;;;;;16.80;42.50;101782.81;6150357;23;19983;-74
2024/03/17 09:02:34;;;;;;;;;;;;;;;17.22;42.61;101774.25;6149645;23;19917;-74
2024/03/17 09:04:59;;;;;;;;;;;;;;;16.45;44.39;101775.00;6148916;23;19980;-74
2024/03/17 09:07:25;;;;;;;;;;;;;;;17.05;42.17;101768.47;6148452;23;19913;-74
2024/03/17 09:09:50;;;;;;;;;;;;;;;16.22;43.71;101776.28;6149400;23;19972;-74
2024/03/17 09:12:16;;;;;;;;;;;;;;;15.68;44.93;101775.50;6148608;23;19912;-74
2024/03/17 09:14:41;;;;;;;;;;;;;;;15.28;45.56;101777.09;6149270;23;20233;-74
2024/03/17 09:17:07;;;;;;;;;;;;;;;15.25;46.55;101780.22;6154950;23;19908;-74
2024/03/17 09:19:33;;;;;;;;;;;;;;;15.91;43.86;101780.53;6152041;23;19916;-75
2024/03/17 09:21:58;;;;;;;;;;;;;;;15.66;45.39;101783.81;6152052;23;19959;-74
2024/03/17 09:24:24;;;;;;;;;;;;;;;14.65;48.46;101778.09;6155167;23;19916;-74
2024/03/17 09:26:49;;;;;;;;;;;;;;;14.87;47.27;101769.91;6152378;23;19921;-74
2024/03/17 09:29:17;;;;;;;;;;;;;;;14.19;48.15;101767.88;6152652;23;19908;-74
2024/03/17 09:31:42;;;;;;;;;;;;;;;13.75;50.14;101762.56;6154086;23;19913;-74
2024/03/17 09:34:08;;;;;;;;;;;;;;;13.82;52.31;101756.34;6151408;23;19939;-74
2024/03/17 09:36:34;;;;;;;;;;;;;;;14.25;49.72;101767.09;6151588;23;20330;-74
2024/03/17 09:39:05;;;;;;;;;;;;;;;13.92;51.70;101754.97;6153962;23;19991;-74
2024/03/17 09:41:30;;;;;;;;;;;;;;;14.06;50.13;101755.91;6151982;23;19956;-74
2024/03/17 09:43:56;;;;;;;;;;;;;;;13.50;51.89;101751.34;6153384;23;19968;-74
2024/03/17 09:46:28;;;;;;;;;;;;;;;13.30;52.34;101745.69;6154779;23;20142;-74
2024/03/17 09:48:54;;;;;;;;;;;;;;;12.96;53.78;101748.06;6152991;23;19919;-74
2024/03/17 09:51:20;;;;;;;;;;;;;;;12.95;54.96;101746.38;6152141;23;19917;-74
2024/03/17 09:53:45;;;;;;;;;;;;;;;13.57;52.12;101745.97;6154241;23;19948;-74
2024/03/17 09:56:12;;;;;;;;;;;;;;;13.71;52.44;101746.91;6151470;23;19913;-74
2024/03/17 09:58:37;;;;;;;;;;;;;;;13.30;53.70;101742.97;6127105;23;19923;-74
2024/03/17 10:01:03;;;;;;;;;;;;;;;12.93;54.70;101739.47;6153257;23;19913;-74
2024/03/17 10:03:49;;;;;;;;;;;;;;;12.58;55.79;101743.63;6152156;23;20222;-74
2024/03/17 10:06:15;;;;;;;;;;;;;;;12.46;54.76;101741.59;6151178;23;20377;-74
2024/03/17 10:08:44;;;;;;;;;;;;;;;12.33;55.86;101736.88;6152327;23;19912;-74
2024/03/17 10:11:10;;;;;;;;;;;;;;;12.40;57.24;101735.94;6151615;23;19999;-74
2024/03/17 10:13:36;;;;;;;;;;;;;;;12.28;59.24;101735.56;6127117;23;19968;-74
2024/03/17 10:16:01;;;;;;;;;;;;;;;12.20;57.96;101740.22;6153261;23;19916;-73
2024/03/17 10:18:26;;;;;;;;;;;;;;;12.42;56.32;101735.75;6153854;23;19968;-74
2024/03/17 10:20:54;;;;;;;;;;;;;;;12.73;54.95;101737.38;6152390;23;19913;-74
2024/03/17 10:23:20;;;;;;;;;;;;;;;12.24;56.34;101739.66;6152824;23;19916;-74
2024/03/17 10:25:45;;;;;;;;;;;;;;;12.29;56.77;101733.69;6153345;23;19917;-74
2024/03/17 10:28:11;;;;;;;;;;;;;;;12.32;57.55;101740.59;6153407;23;19991;-74
2024/03/17 10:30:36;;;;;;;;;;;;;;;11.94;59.70;101738.75;6125709;23;20014;-74
2024/03/17 10:33:06;;;;;;;;;;;;;;;11.65;61.85;101743.09;6153550;23;19991;-74
2024/03/17 10:35:34;;;;;;;;;;;;;;;11.86;58.60;101745.09;6152015;23;20244;-74
2024/03/17 10:38:01;;;;;;;;;;;;;;;11.90;58.65;101749.09;6153616;23;20049;-73
2024/03/17 10:40:26;;;;;;;;;;;;;;;11.77;59.79;101748.91;6158728;23;20237;-73
2024/03/17 10:42:52;;;;;;;;;;;;;;;11.59;61.09;101747.38;6165622;23;19912;-74
2024/03/17 10:45:17;;;;;;;;;;;;;;;11.37;62.38;101735.59;6154432;23;20368;-74
2024/03/17 10:47:49;;;;;;;;;;;;;;;11.42;63.43;101737.72;6154186;23;19912;-74
2024/03/17 10:50:21;;;;;;;;;;;;;;;11.38;63.06;101731.88;6152297;23;20351;-74
2024/03/17 10:52:49;;;;;;;;;;;;;;;11.53;60.87;101727.34;6153196;23;19913;-74
2024/03/17 10:55:19;;;;;;;;;;;;;;;11.31;63.56;101737.13;6152091;23;19916;-73
2024/03/17 10:57:45;;;;;;;;;;;;;;;11.26;64.39;101728.75;6152465;23;20039;-73
2024/03/17 11:00:12;;;;;;;;;;;;;;;11.16;64.13;101731.69;6152321;23;19912;-73
2024/03/17 11:02:38;;;;;;;;;;;;;;;11.04;64.67;101731.25;6124459;23;19913;-73
2024/03/17 11:05:04;;;;;;;;;;;;;;;11.16;63.19;101728.13;6120912;23;20252;-74
2024/03/17 11:07:31;;;;;;;;;;;;;;;11.23;63.21;101726.41;6147483;23;19996;-74
2024/03/17 11:09:56;;;;;;;;;;;;;;;11.36;63.01;101723.94;6148437;23;20000;-73
2024/03/17 11:12:37;;;;;;;;;;;;;;;11.53;64.64;101723.81;6120135;23;19944;-73
2024/03/17 11:15:25;;;;;;;;;;;;;;;11.45;65.02;101719.31;6147744;23;20296;-74
2024/03/17 11:17:54;;;;;;;;;;;;;;;11.68;63.08;101723.84;6131342;23;19917;-74
2024/03/17 11:20:25;;;;;;;;;;;;;;;11.72;62.98;101725.19;6146699;23;19995;-74
2024/03/17 11:22:50;;;;;;;;;;;;;;;11.61;63.38;101723.75;6147697;23;19912;-74
2024/03/17 11:25:25;;;;;;;;;;;;;;;11.30;63.61;101716.56;6151230;23;20210;-74
2024/03/17 11:27:50;;;;;;;;;;;;;;;11.33;63.33;101716.22;6150896;23;19916;-74
2024/03/17 11:30:35;;;;;;;;;;;;;;;11.25;64.29;101715.44;6124409;23;19924;-74
2024/03/17 11:33:00;;;;;;;;;;;;;;;11.27;64.24;101713.41;6147189;23;20027;-74
2024/03/17 11:35:26;;;;;;;;;;;;;;;11.21;64.30;101712.28;6146232;23;19943;-74
2024/03/17 11:37:52;;;;;;;;;;;;;;;11.61;64.49;101712.97;6149307;23;19909;-74
2024/03/17 11:40:24;;;;;;;;;;;;;;;11.54;63.36;101714.69;6144982;23;19920;-74
2024/03/17 11:43:02;;;;;;;;;;;;;;;11.50;63.71;101708.00;6145875;23;19913;-74
2024/03/17 11:45:27;;;;;;;;;;;;;;;11.44;63.60;101711.44;6146858;23;20293;-72
2024/03/17 11:47:52;;;;;;;;;;;;;;;11.54;63.22;101712.00;6145428;23;19924;-73
2024/03/17 11:50:18;;;;;;;;;;;;;;;11.82;62.54;101720.34;6119427;23;20347;-72
2024/03/17 11:52:45;;;;;;;;;;;;;;;11.81;62.88;101712.44;6150898;23;20270;-72
2024/03/17 11:55:17;;;;;;;;;;;;;;;11.76;60.07;101721.06;6149439;23;19936;-71
2024/03/17 11:57:45;;;;;;;;;;;;;;;11.59;60.57;101709.59;6151463;23;19909;-72
2024/03/17 12:00:20;;;;;;;;;;;;;;;11.72;62.18;101698.19;6152389;23;20361;-72
2024/03/17 12:02:47;;;;;;;;;;;;;;;11.61;61.23;101702.19;6151140;23;19956;-72
2024/03/17 12:05:12;;;;;;;;;;;;;;;11.95;60.98;101697.28;6151432;23;20241;-72
2024/03/17 12:07:41;;;;;;;;;;;;;;;11.79;60.96;101701.00;6152053;23;19922;-73
2024/03/17 12:10:07;;;;;;;;;;;;;;;11.64;61.97;101688.31;6149614;23;19912;-72
2024/03/17 12:12:35;;;;;;;;;;;;;;;11.59;62.29;101688.03;6125142;23;19916;-73
2024/03/17 12:15:00;;;;;;;;;;;;;;;11.67;62.20;101690.63;6152876;23;20266;-73
2024/03/17 12:17:25;;;;;;;;;;;;;;;11.83;62.35;101680.69;6150837;23;19958;-73
2024/03/17 12:19:50;;;;;;;;;;;;;;;11.89;63.45;101684.53;6151502;23;20325;-73
2024/03/17 12:22:22;;;;;;;;;;;;;;;12.27;61.07;101688.00;6151685;23;20265;-73
2024/03/17 12:24:51;;;;;;;;;;;;;;;12.45;60.35;101694.88;6151859;23;19981;-73
2024/03/17 12:27:20;;;;;;;;;;;;;;;12.56;60.00;101686.25;6150883;23;19989;-73
2024/03/17 12:29:46;;;;;;;;;;;;;;;12.30;59.88;101681.38;6150800;23;19924;-73
2024/03/17 12:32:11;;;;;;;;;;;;;;;12.23;60.66;101675.91;6151641;23;19913;-73